Time,TemperatureF,DewpointF,PressureIn,WindDirection,WindDirectionDegrees,WindSpeedMPH,WindSpeedGustMPH,Humidity,HourlyPrecipIn,Conditions,Clouds,dailyrainin,SolarRadiationWatts/m^2,SoftwareType,DateUTC
2013-01-04 00:03:00,15.5,8.0,30.41,West,272,0.0,3.0,71,0.00,,,0.00,0,weatherlink.com 1.10,2013-01-04 06:03:00,
2013-01-04 00:18:00,14.9,7.0,30.41,NW,313,0.0,3.0,71,0.00,,,0.00,0,weatherlink.com 1.10,2013-01-04 06:18:00,
2013-01-04 00:33:00,14.6,7.0,30.41,WNW,292,0.0,2.0,71,0.00,,,0.00,0,weatherlink.com 1.10,2013-01-04 06:33:00,
2013-01-04 00:48:00,14.4,7.0,30.40,WNW,296,0.0,3.0,71,0.00,,,0.00,0,weatherlink.com 1.10,2013-01-04 06:48:00,
2013-01-04 01:03:00,15.6,7.0,30.40,WNW,301,0.0,3.0,70,0.00,,,0.00,0,weatherlink.com 1.10,2013-01-04 07:03:00,
2013-01-04 01:18:00,16.7,7.0,30.40,West,280,0.0,4.0,67,0.00,,,0.00,0,weatherlink.com 1.10,2013-01-04 07:18:00,
2013-01-04 01:33:00,16.7,7.0,30.39,WNW,284,4.0,6.0,67,0.00,,,0.00,0,weatherlink.com 1.10,2013-01-04 07:33:00,
2013-01-04 01:49:00,19.5,9.0,30.39,WSW,254,10.0,13.0,63,0.00,,,0.00,0,weatherlink.com 1.10,2013-01-04 07:49:00,
2013-01-04 02:04:00,20.7,8.0,30.39,WNW,289,4.0,13.0,59,0.00,,,0.00,0,weatherlink.com 1.10,2013-01-04 08:04:00,
2013-01-04 02:19:00,18.5,7.0,30.39,WNW,293,1.0,5.0,62,0.00,,,0.00,0,weatherlink.com 1.10,2013-01-04 08:19:00,
2013-01-04 02:34:00,17.6,8.0,30.39,WNW,296,2.0,4.0,65,0.00,,,0.00,0,weatherlink.com 1.10,2013-01-04 08:34:00,
2013-01-04 02:49:00,17.4,7.0,30.39,West,281,4.0,6.0,64,0.00,,,0.00,0,weatherlink.com 1.10,2013-01-04 08:49:00,
2013-01-04 03:04:00,17.6,8.0,30.39,WNW,297,2.0,6.0,66,0.00,,,0.00,0,weatherlink.com 1.10,2013-01-04 09:04:00,
2013-01-04 03:19:00,18.3,8.0,30.39,WNW,287,2.0,12.0,65,0.00,,,0.00,0,weatherlink.com 1.10,2013-01-04 09:19:00,
2013-01-04 03:34:00,18.3,8.0,30.39,West,273,7.0,12.0,65,0.00,,,0.00,0,weatherlink.com 1.10,2013-01-04 09:34:00,
2013-01-04 03:49:00,18.2,8.0,30.39,WNW,291,3.0,9.0,65,0.00,,,0.00,0,weatherlink.com 1.10,2013-01-04 09:49:00,
2013-01-04 04:04:00,17.4,8.0,30.38,WNW,289,1.0,5.0,66,0.00,,,0.00,0,weatherlink.com 1.10,2013-01-04 10:04:00,
2013-01-04 04:19:00,17.1,8.0,30.38,WNW,292,0.0,4.0,66,0.00,,,0.00,0,weatherlink.com 1.10,2013-01-04 10:19:00,
2013-01-04 04:34:00,16.7,7.0,30.38,WNW,283,0.0,5.0,67,0.00,,,0.00,0,weatherlink.com 1.10,2013-01-04 10:34:00,
2013-01-04 04:49:00,16.2,7.0,30.38,WNW,292,0.0,2.0,67,0.00,,,0.00,0,weatherlink.com 1.10,2013-01-04 10:49:00,
2013-01-04 05:04:00,15.7,7.0,30.38,WNW,294,0.0,1.0,68,0.00,,,0.00,0,weatherlink.com 1.10,2013-01-04 11:04:00,
2013-01-04 05:19:00,16.7,7.0,30.38,West,279,0.0,5.0,67,0.00,,,0.00,0,weatherlink.com 1.10,2013-01-04 11:19:00,
2013-01-04 05:34:00,16.4,7.0,30.37,WNW,299,2.0,3.0,66,0.00,,,0.00,0,weatherlink.com 1.10,2013-01-04 11:34:00,
2013-01-04 05:49:00,16.5,7.0,30.37,NNE,13,0.0,2.0,66,0.00,,,0.00,0,weatherlink.com 1.10,2013-01-04 11:49:00,
2013-01-04 06:04:00,16.2,7.0,30.37,North,11,0.0,2.0,66,0.00,,,0.00,0,weatherlink.com 1.10,2013-01-04 12:04:00,
2013-01-04 06:19:00,17.2,7.0,30.37,West,275,1.0,5.0,65,0.00,,,0.00,0,weatherlink.com 1.10,2013-01-04 12:19:00,
2013-01-04 06:34:00,16.9,7.0,30.38,West,265,2.0,5.0,65,0.00,,,0.00,0,weatherlink.com 1.10,2013-01-04 12:34:00,
2013-01-04 06:49:00,15.9,6.0,30.38,West,279,0.0,2.0,66,0.00,,,0.00,0,weatherlink.com 1.10,2013-01-04 12:49:00,
2013-01-04 07:04:00,16.1,7.0,30.38,WNW,294,0.0,2.0,66,0.00,,,0.00,0,weatherlink.com 1.10,2013-01-04 13:04:00,
2013-01-04 07:19:00,16.4,7.0,30.37,North,360,0.0,3.0,66,0.00,,,0.00,0,weatherlink.com 1.10,2013-01-04 13:19:00,
2013-01-04 07:34:00,15.8,6.0,30.37,NW,313,0.0,3.0,66,0.00,,,0.00,0,weatherlink.com 1.10,2013-01-04 13:34:00,
2013-01-04 07:49:00,16.5,7.0,30.37,NW,313,0.0,2.0,66,0.00,,,0.00,0,weatherlink.com 1.10,2013-01-04 13:49:00,
2013-01-04 08:10:00,16.4,7.0,30.38,NW,308,1.0,5.0,66,0.00,,,0.00,7,weatherlink.com 1.10,2013-01-04 14:10:00,
2013-01-04 08:34:00,16.5,7.0,30.38,NNW,331,0.0,5.0,65,0.00,,,0.00,25,weatherlink.com 1.10,2013-01-04 14:34:00,
2013-01-04 08:49:00,17.3,7.0,30.38,NW,325,1.0,3.0,64,0.00,,,0.00,56,weatherlink.com 1.10,2013-01-04 14:49:00,
2013-01-04 09:04:00,17.9,7.0,30.38,West,267,2.0,6.0,63,0.00,,,0.00,100,weatherlink.com 1.10,2013-01-04 15:04:00,
2013-01-04 09:19:00,18.0,8.0,30.39,SW,231,6.0,8.0,64,0.00,,,0.00,149,weatherlink.com 1.10,2013-01-04 15:19:00,
2013-01-04 09:34:00,18.0,8.0,30.39,SW,235,1.0,5.0,66,0.00,,,0.00,197,weatherlink.com 1.10,2013-01-04 15:34:00,
2013-01-04 09:49:00,19.6,9.0,30.40,SW,229,6.0,8.0,64,0.00,,,0.00,241,weatherlink.com 1.10,2013-01-04 15:49:00,
2013-01-04 10:04:00,20.4,10.0,30.40,WSW,238,4.0,7.0,65,0.00,,,0.00,276,weatherlink.com 1.10,2013-01-04 16:04:00,
2013-01-04 10:19:00,22.4,11.0,30.41,West,259,4.0,5.0,63,0.00,,,0.00,309,weatherlink.com 1.10,2013-01-04 16:19:00,
2013-01-04 10:35:00,24.2,12.0,30.40,WNW,290,0.0,5.0,59,0.00,,,0.00,341,weatherlink.com 1.10,2013-01-04 16:35:00,
2013-01-04 10:50:00,24.6,13.0,30.39,NW,312,1.0,4.0,62,0.00,,,0.00,369,weatherlink.com 1.10,2013-01-04 16:50:00,
2013-01-04 11:05:00,25.9,14.0,30.39,NW,317,0.0,5.0,61,0.00,,,0.00,394,weatherlink.com 1.10,2013-01-04 17:05:00,
2013-01-04 11:20:00,26.6,14.0,30.38,NNW,332,3.0,6.0,60,0.00,,,0.00,418,weatherlink.com 1.10,2013-01-04 17:20:00,
2013-01-04 11:35:00,27.9,15.0,30.37,WNW,289,3.0,7.0,59,0.00,,,0.00,438,weatherlink.com 1.10,2013-01-04 17:35:00,
2013-01-04 11:50:00,27.6,14.0,30.37,WNW,298,2.0,9.0,57,0.00,,,0.00,454,weatherlink.com 1.10,2013-01-04 17:50:00,
2013-01-04 12:05:00,28.3,15.0,30.34,WNW,298,4.0,10.0,58,0.00,,,0.00,466,weatherlink.com 1.10,2013-01-04 18:05:00,
2013-01-04 12:20:00,28.5,16.0,30.34,West,281,3.0,11.0,60,0.00,,,0.00,476,weatherlink.com 1.10,2013-01-04 18:20:00,
2013-01-04 12:35:00,29.8,16.0,30.33,WNW,299,5.0,7.0,57,0.00,,,0.00,482,weatherlink.com 1.10,2013-01-04 18:35:00,
2013-01-04 12:50:00,30.0,16.0,30.33,West,261,1.0,6.0,57,0.00,,,0.00,483,weatherlink.com 1.10,2013-01-04 18:50:00,
2013-01-04 13:05:00,30.1,17.0,30.32,WSW,253,5.0,6.0,58,0.00,,,0.00,483,weatherlink.com 1.10,2013-01-04 19:05:00,
2013-01-04 13:20:00,31.1,17.0,30.31,WSW,253,3.0,6.0,56,0.00,,,0.00,478,weatherlink.com 1.10,2013-01-04 19:20:00,
2013-01-04 13:35:00,32.0,17.0,30.30,West,274,5.0,6.0,55,0.00,,,0.00,469,weatherlink.com 1.10,2013-01-04 19:35:00,
2013-01-04 13:50:00,32.0,15.0,30.30,SW,226,4.0,8.0,50,0.00,,,0.00,457,weatherlink.com 1.10,2013-01-04 19:50:00,
2013-01-04 14:05:00,33.4,16.0,30.29,WSW,251,2.0,5.0,50,0.00,,,0.00,443,weatherlink.com 1.10,2013-01-04 20:05:00,
2013-01-04 14:20:00,33.5,17.0,30.28,WSW,238,2.0,5.0,50,0.00,,,0.00,424,weatherlink.com 1.10,2013-01-04 20:20:00,
2013-01-04 14:35:00,35.1,18.0,30.27,West,268,3.0,4.0,50,0.00,,,0.00,403,weatherlink.com 1.10,2013-01-04 20:35:00,
2013-01-04 14:51:00,34.4,18.0,30.27,WSW,250,4.0,5.0,51,0.00,,,0.00,376,weatherlink.com 1.10,2013-01-04 20:51:00,
2013-01-04 15:06:00,34.1,17.0,30.27,SW,229,3.0,6.0,50,0.00,,,0.00,350,weatherlink.com 1.10,2013-01-04 21:06:00,
2013-01-04 15:21:00,35.1,18.0,30.27,SSW,198,3.0,7.0,49,0.00,,,0.00,318,weatherlink.com 1.10,2013-01-04 21:21:00,
2013-01-04 15:36:00,34.7,20.0,30.26,South,178,2.0,8.0,56,0.00,,,0.00,285,weatherlink.com 1.10,2013-01-04 21:36:00,
2013-01-04 15:51:00,34.8,21.0,30.26,South,184,4.0,11.0,58,0.00,,,0.00,246,weatherlink.com 1.10,2013-01-04 21:51:00,
2013-01-04 16:06:00,34.6,20.0,30.25,SSW,205,5.0,8.0,56,0.00,,,0.00,197,weatherlink.com 1.10,2013-01-04 22:06:00,
2013-01-04 16:21:00,34.3,21.0,30.25,SSW,194,0.0,5.0,59,0.00,,,0.00,149,weatherlink.com 1.10,2013-01-04 22:21:00,
2013-01-04 16:36:00,33.8,21.0,30.25,SSW,202,3.0,5.0,61,0.00,,,0.00,102,weatherlink.com 1.10,2013-01-04 22:36:00,
2013-01-04 16:51:00,32.8,22.0,30.25,SSW,198,0.0,6.0,64,0.00,,,0.00,62,weatherlink.com 1.10,2013-01-04 22:51:00,
2013-01-04 17:06:00,31.8,21.0,30.26,South,183,0.0,3.0,64,0.00,,,0.00,25,weatherlink.com 1.10,2013-01-04 23:06:00,
2013-01-04 17:21:00,31.5,21.0,30.25,South,182,0.0,4.0,65,0.00,,,0.00,11,weatherlink.com 1.10,2013-01-04 23:21:00,
2013-01-04 17:36:00,31.5,20.0,30.25,South,182,0.0,1.0,63,0.00,,,0.00,0,weatherlink.com 1.10,2013-01-04 23:36:00,
2013-01-04 17:51:00,30.1,19.0,30.25,South,182,1.0,2.0,64,0.00,,,0.00,0,weatherlink.com 1.10,2013-01-04 23:51:00,
2013-01-04 18:06:00,29.7,19.0,30.24,South,184,0.0,3.0,65,0.00,,,0.00,0,weatherlink.com 1.10,2013-01-05 00:06:00,
2013-01-04 18:38:00,27.2,17.0,30.25,South,188,0.0,2.0,66,0.00,,,0.00,0,weatherlink.com 1.10,2013-01-05 00:38:00,
2013-01-04 18:51:00,26.4,17.0,30.25,South,184,0.0,7.0,67,0.00,,,0.00,0,weatherlink.com 1.10,2013-01-05 00:51:00,
2013-01-04 19:06:00,25.8,17.0,30.25,SSW,201,2.0,4.0,69,0.00,,,0.00,0,weatherlink.com 1.10,2013-01-05 01:06:00,
2013-01-04 19:21:00,26.1,16.0,30.25,SSW,204,0.0,4.0,67,0.00,,,0.00,0,weatherlink.com 1.10,2013-01-05 01:21:00,
2013-01-04 19:36:00,25.8,17.0,30.24,SSW,204,0.0,0.0,68,0.00,,,0.00,0,weatherlink.com 1.10,2013-01-05 01:36:00,
2013-01-04 19:55:00,25.7,16.0,30.24,SSW,201,0.0,5.0,68,0.00,,,0.00,0,weatherlink.com 1.10,2013-01-05 01:55:00,
2013-01-04 20:06:00,24.8,16.0,30.25,South,173,2.0,6.0,69,0.00,,,0.00,0,weatherlink.com 1.10,2013-01-05 02:06:00,
2013-01-04 20:21:00,23.5,16.0,30.24,South,181,2.0,8.0,72,0.00,,,0.00,0,weatherlink.com 1.10,2013-01-05 02:21:00,
2013-01-04 20:36:00,22.0,14.0,30.23,SSW,196,5.0,8.0,72,0.00,,,0.00,0,weatherlink.com 1.10,2013-01-05 02:36:00,
2013-01-04 20:51:00,22.8,15.0,30.22,WSW,250,3.0,7.0,72,0.00,,,0.00,0,weatherlink.com 1.10,2013-01-05 02:51:00,
2013-01-04 21:06:00,21.7,15.0,30.21,WSW,250,3.0,4.0,75,0.00,,,0.00,0,weatherlink.com 1.10,2013-01-05 03:06:00,
2013-01-04 21:21:00,22.3,16.0,30.21,West,276,2.0,4.0,76,0.00,,,0.00,0,weatherlink.com 1.10,2013-01-05 03:21:00,
2013-01-04 21:36:00,20.3,14.0,30.21,WNW,296,0.0,3.0,75,0.00,,,0.00,0,weatherlink.com 1.10,2013-01-05 03:36:00,
2013-01-04 21:51:00,17.2,11.0,30.21,NW,307,1.0,4.0,77,0.00,,,0.00,0,weatherlink.com 1.10,2013-01-05 03:51:00,
2013-01-04 22:06:00,19.0,14.0,30.21,WNW,300,0.0,2.0,79,0.00,,,0.00,0,weatherlink.com 1.10,2013-01-05 04:06:00,
2013-01-04 22:21:00,19.4,13.0,30.21,SW,222,0.0,2.0,76,0.00,,,0.00,0,weatherlink.com 1.10,2013-01-05 04:21:00,
2013-01-04 22:36:00,20.5,15.0,30.21,SW,222,0.0,2.0,78,0.00,,,0.00,0,weatherlink.com 1.10,2013-01-05 04:36:00,
2013-01-04 22:51:00,21.8,16.0,30.21,SSW,194,1.0,3.0,77,0.00,,,0.00,0,weatherlink.com 1.10,2013-01-05 04:51:00,
2013-01-04 23:07:00,19.9,14.0,30.21,South,188,2.0,4.0,77,0.00,,,0.00,0,weatherlink.com 1.10,2013-01-05 05:07:00,
2013-01-04 23:22:00,19.4,14.0,30.20,SSW,204,0.0,3.0,79,0.00,,,0.00,0,weatherlink.com 1.10,2013-01-05 05:22:00,
2013-01-04 23:37:00,20.0,15.0,30.20,SW,236,0.0,2.0,79,0.00,,,0.00,0,weatherlink.com 1.10,2013-01-05 05:37:00,
2013-01-04 23:52:00,21.8,15.0,30.19,SW,236,0.0,2.0,76,0.00,,,0.00,0,weatherlink.com 1.10,2013-01-05 05:52:00,